createdAt,value
2022-12-19T00:01:29.076Z,99792.84
2022-12-19T00:04:07.755Z,99824.47
2022-12-19T00:06:37.434Z,99807.50
2022-12-19T00:09:05.322Z,99838.75
2022-12-19T00:11:33.549Z,99843.97
2022-12-19T00:14:00.730Z,99847.94
2022-12-19T00:16:29.865Z,99831.44
2022-12-19T00:18:59.653Z,99851.03
2022-12-19T00:21:34.853Z,99824.22
2022-12-19T00:24:13.144Z,99836.19
2022-12-19T00:26:48.141Z,99851.66
2022-12-19T00:29:15.149Z,99839.69
2022-12-19T00:31:44.436Z,99848.59
2022-12-19T00:34:13.815Z,99881.28
2022-12-19T00:36:40.698Z,99859.53
2022-12-19T00:39:08.031Z,99842.94
2022-12-19T00:41:37.462Z,99870.09
2022-12-19T00:44:07.220Z,99885.00
2022-12-19T00:46:35.395Z,99886.25
2022-12-19T00:49:03.661Z,99870.44
2022-12-19T00:51:32.722Z,99880.44
2022-12-19T00:54:00.284Z,99879.06
2022-12-19T00:56:37.792Z,99850.44
2022-12-19T00:59:07.569Z,99903.03
2022-12-19T01:01:37.993Z,99878.63
2022-12-19T01:06:54.759Z,99894.06
2022-12-19T01:09:33.122Z,99913.78
2022-12-19T01:12:00.233Z,99909.09
2022-12-19T01:14:27.326Z,99912.44
2022-12-19T01:16:54.268Z,99915.09
2022-12-19T01:19:21.190Z,99946.56
2022-12-19T01:21:48.437Z,99926.16
2022-12-19T01:24:18.932Z,99927.75
2022-12-19T01:26:49.906Z,99923.88
2022-12-19T01:29:16.844Z,99925.25
2022-12-19T01:31:44.075Z,99931.72
2022-12-19T01:34:11.036Z,99947.38
2022-12-19T01:36:40.045Z,99938.75
2022-12-19T01:39:07.989Z,99959.50
2022-12-19T01:41:35.443Z,99927.00
2022-12-19T01:44:08.206Z,99965.16
2022-12-19T01:46:44.183Z,99957.28
2022-12-19T01:49:34.249Z,99960.34
2022-12-19T01:52:07.433Z,99924.63
2022-12-19T01:54:40.934Z,99957.59
2022-12-19T01:57:13.629Z,99937.44
2022-12-19T01:59:50.190Z,99960.84
2022-12-19T02:02:29.311Z,99957.91
2022-12-19T02:04:56.348Z,99963.97
2022-12-19T02:07:26.311Z,99951.34
2022-12-19T02:09:57.392Z,99963.56
2022-12-19T02:12:43.281Z,99974.38
2022-12-19T02:15:14.715Z,99986.22
2022-12-19T02:17:54.816Z,99979.91
2022-12-19T02:20:59.229Z,99970.09
2022-12-19T02:23:46.069Z,100000.00
2022-12-19T02:26:43.028Z,100009.34
2022-12-19T02:29:37.918Z,100000.22
2022-12-19T02:32:15.817Z,100019.47
2022-12-19T02:35:18.794Z,100025.47
2022-12-19T02:37:59.790Z,100009.09
2022-12-19T02:40:39.438Z,100015.41
2022-12-19T02:43:10.596Z,99992.25
2022-12-19T02:45:39.718Z,100034.00
2022-12-19T02:48:09.220Z,100049.75
2022-12-19T02:50:42.639Z,100062.34
2022-12-19T02:53:13.816Z,100062.34
2022-12-19T02:55:52.915Z,100065.41
2022-12-19T02:58:38.274Z,100060.97
2022-12-19T03:01:17.672Z,100081.31
2022-12-19T03:03:52.082Z,100067.44
2022-12-19T03:06:31.917Z,100084.19
2022-12-19T03:09:12.029Z,100091.13
2022-12-19T03:11:42.143Z,100082.34
2022-12-19T03:14:18.426Z,100098.13
2022-12-19T03:16:45.645Z,100105.22
2022-12-19T03:19:14.764Z,100106.41
2022-12-19T03:21:45.614Z,100110.63
2022-12-19T03:24:14.438Z,100111.69
2022-12-19T03:27:02.084Z,100100.78
2022-12-19T03:29:38.564Z,100118.75
2022-12-19T03:32:10.677Z,100117.94
2022-12-19T03:34:47.357Z,100115.06
2022-12-19T03:37:18.413Z,100123.31
2022-12-19T03:39:49.638Z,100125.41
2022-12-19T03:42:19.124Z,100132.72
2022-12-19T03:44:49.724Z,100145.31
2022-12-19T03:47:51.373Z,100151.81
2022-12-19T03:50:18.812Z,100151.47
2022-12-19T03:53:02.910Z,100165.50
2022-12-19T03:55:38.592Z,100162.53
2022-12-19T03:58:10.911Z,100137.88
2022-12-19T04:00:43.740Z,100157.59
2022-12-19T04:03:11.988Z,100162.94
2022-12-19T04:05:41.524Z,100141.91
2022-12-19T04:08:10.990Z,100165.56
2022-12-19T04:11:01.770Z,100175.16
2022-12-19T04:13:53.335Z,100185.75
2022-12-19T04:16:23.246Z,100187.44
2022-12-19T04:18:58.404Z,100189.84
2022-12-19T04:21:35.602Z,100207.41
2022-12-19T04:24:12.351Z,100250.38
2022-12-19T04:26:42.268Z,100231.16
2022-12-19T04:29:13.933Z,100217.56
2022-12-19T04:31:41.452Z,100219.09
2022-12-19T04:34:08.361Z,100225.59
2022-12-19T04:36:35.287Z,100257.72
2022-12-19T04:39:02.372Z,100244.00
2022-12-19T04:41:29.420Z,100249.59
2022-12-19T04:43:56.335Z,100251.25
2022-12-19T04:46:23.240Z,100257.72
2022-12-19T04:48:50.237Z,100259.22
2022-12-19T04:51:17.301Z,100258.94
2022-12-19T04:53:44.177Z,100271.53
2022-12-19T04:56:11.189Z,100273.63
2022-12-19T04:58:38.061Z,100271.84
2022-12-19T05:01:06.761Z,100279.94
2022-12-19T05:03:34.515Z,100294.97
2022-12-19T05:06:10.329Z,100301.22
2022-12-19T05:08:38.834Z,100284.25
2022-12-19T05:11:07.371Z,100258.06
2022-12-19T05:13:34.357Z,100307.91
2022-12-19T05:16:07.417Z,100311.75
2022-12-19T05:18:36.011Z,100314.84
2022-12-19T05:21:02.972Z,100304.84
2022-12-19T05:23:30.369Z,100298.91
2022-12-19T05:26:02.429Z,100319.66
2022-12-19T05:28:29.600Z,100312.47
2022-12-19T05:31:08.502Z,100326.34
2022-12-19T05:33:36.111Z,100306.22
2022-12-19T05:36:04.337Z,100335.25
2022-12-19T05:38:31.574Z,100329.47
2022-12-19T05:40:58.707Z,100352.81
2022-12-19T05:43:26.316Z,100340.22
2022-12-19T05:45:53.230Z,100358.31
2022-12-19T05:48:20.107Z,100365.03
2022-12-19T05:50:49.001Z,100369.00
2022-12-19T05:53:19.672Z,100367.59
2022-12-19T05:55:50.470Z,100368.81
2022-12-19T05:58:17.334Z,100360.81
2022-12-19T06:00:44.306Z,100360.94
2022-12-19T06:03:11.228Z,100370.03
2022-12-19T06:05:38.365Z,100382.72
2022-12-19T06:08:05.490Z,100413.47
2022-12-19T06:10:32.421Z,100375.53
2022-12-19T06:12:59.282Z,100385.66
2022-12-19T06:15:26.445Z,100398.34
2022-12-19T06:17:54.652Z,100410.03
2022-12-19T06:20:21.770Z,100414.75
2022-12-19T06:22:48.635Z,100403.91
2022-12-19T06:25:15.616Z,100413.25
2022-12-19T06:27:42.530Z,100411.06
2022-12-19T06:30:09.944Z,100409.59
2022-12-19T06:32:38.253Z,100417.66
2022-12-19T06:35:06.078Z,100408.22
2022-12-19T06:37:32.976Z,100415.19
2022-12-19T06:39:59.924Z,100419.53
2022-12-19T06:42:26.899Z,100437.88
2022-12-19T06:44:56.300Z,100429.44
2022-12-19T06:47:24.800Z,100431.88
2022-12-19T06:49:51.919Z,100433.38
2022-12-19T06:52:18.802Z,100440.09
2022-12-19T06:54:45.830Z,100466.28
2022-12-19T06:57:12.746Z,100445.09
2022-12-19T06:59:39.846Z,100450.34
2022-12-19T07:02:16.144Z,100453.28
2022-12-19T07:04:49.683Z,100466.72
2022-12-19T07:07:16.808Z,100474.03
2022-12-19T07:09:43.754Z,100466.91
2022-12-19T07:12:10.731Z,100448.50
2022-12-19T07:14:37.774Z,100443.03
2022-12-19T07:17:05.700Z,100461.25
2022-12-19T07:19:34.954Z,100421.56
2022-12-19T07:22:03.807Z,100465.81
2022-12-19T07:24:31.070Z,100446.75
2022-12-19T07:26:58.515Z,100467.09
2022-12-19T07:29:25.397Z,100469.88
2022-12-19T07:31:52.656Z,100477.00
2022-12-19T07:34:19.558Z,100468.97
2022-12-19T07:36:46.544Z,100487.34
2022-12-19T07:39:13.440Z,100461.97
2022-12-19T07:41:40.422Z,100494.41
2022-12-19T07:44:07.598Z,100484.56
2022-12-19T07:46:35.356Z,100479.31
2022-12-19T07:49:02.322Z,100472.81
2022-12-19T07:51:29.543Z,100474.06
2022-12-19T07:53:56.492Z,100496.66
2022-12-19T07:56:23.407Z,100487.41
2022-12-19T07:58:50.840Z,100495.34
2022-12-19T08:01:18.139Z,100482.47
2022-12-19T08:03:45.167Z,100484.56
2022-12-19T08:06:12.100Z,100514.81
2022-12-19T08:08:38.935Z,100488.03
2022-12-19T08:11:11.428Z,100507.88
2022-12-19T08:13:46.016Z,100486.34
2022-12-19T08:16:14.132Z,100488.44
2022-12-19T08:18:41.275Z,100474.09
2022-12-19T08:21:09.287Z,100490.81
2022-12-19T08:23:36.731Z,100482.34
2022-12-19T08:26:06.463Z,100487.03
2022-12-19T08:28:34.796Z,100472.66
2022-12-19T08:31:15.267Z,100465.00
2022-12-19T08:33:42.389Z,100499.06
2022-12-19T08:36:14.542Z,100488.53
2022-12-19T08:38:42.138Z,100483.34
2022-12-19T08:41:09.469Z,100487.72
2022-12-19T08:43:36.520Z,100477.97
2022-12-19T08:46:03.523Z,100488.41
2022-12-19T08:48:32.374Z,100486.34
2022-12-19T08:51:05.770Z,100474.00
2022-12-19T08:53:36.443Z,100498.94
2022-12-19T08:56:18.190Z,100481.22
2022-12-19T08:58:45.774Z,100478.38
2022-12-19T09:01:15.041Z,100467.78
2022-12-19T09:05:14.005Z,100481.16
2022-12-19T09:06:29.857Z,100466.75
2022-12-19T09:09:00.521Z,100479.88
2022-12-19T09:11:27.808Z,100465.28
2022-12-19T09:13:56.721Z,100464.47
2022-12-19T09:16:26.187Z,100462.63
2022-12-19T09:18:55.535Z,100446.69
2022-12-19T09:21:24.349Z,100454.38
2022-12-19T09:24:00.540Z,100458.38
2022-12-19T09:26:32.890Z,100451.59
2022-12-19T09:29:00.780Z,100440.34
2022-12-19T09:31:28.581Z,100436.75
2022-12-19T09:33:55.638Z,100435.03
2022-12-19T09:36:25.054Z,100436.66
2022-12-19T09:38:56.617Z,100424.97
2022-12-19T09:41:32.575Z,100441.22
2022-12-19T09:44:36.762Z,100425.41
2022-12-19T09:47:17.289Z,100442.22
2022-12-19T09:49:47.461Z,100425.88
2022-12-19T09:52:32.837Z,100450.00
2022-12-19T09:55:16.778Z,100419.63
2022-12-19T09:57:55.602Z,100421.09
2022-12-19T10:00:23.256Z,100424.16
2022-12-19T10:03:09.471Z,100408.09
2022-12-19T10:06:03.240Z,100415.97
2022-12-19T10:08:56.529Z,100431.72
2022-12-19T10:12:42.259Z,100387.63
2022-12-19T10:15:15.359Z,100407.91
2022-12-19T10:18:16.517Z,100408.72
2022-12-19T10:21:00.143Z,100400.22
2022-12-19T10:23:30.841Z,100396.00
2022-12-19T10:26:10.906Z,100416.19
2022-12-19T10:28:38.176Z,100418.88
2022-12-19T10:31:21.566Z,100410.72
2022-12-19T10:34:17.582Z,100426.09
2022-12-19T10:39:53.599Z,100405.50
2022-12-19T10:42:32.777Z,100437.16
2022-12-19T10:45:06.473Z,100400.47
2022-12-19T10:47:33.396Z,100423.81
2022-12-19T10:50:04.013Z,100426.84
2022-12-19T10:53:05.019Z,100450.94
2022-12-19T10:55:41.758Z,100444.50
2022-12-19T10:58:35.736Z,100468.50
2022-12-19T11:01:23.731Z,100447.22
2022-12-19T11:04:23.617Z,100423.22
2022-12-19T11:07:04.704Z,100420.56
2022-12-19T11:09:36.234Z,100425.97
2022-12-19T11:14:40.628Z,100440.19
2022-12-19T11:19:49.146Z,100433.88
2022-12-19T11:27:25.471Z,100431.75
2022-12-19T11:29:31.262Z,100416.63
2022-12-19T11:30:38.644Z,100424.94
2022-12-19T11:30:46.252Z,100427.91
2022-12-19T11:33:18.746Z,100418.50
2022-12-19T11:35:49.280Z,100447.16
2022-12-19T11:38:25.737Z,100440.03
2022-12-19T11:40:57.601Z,100425.34
2022-12-19T11:43:48.545Z,100430.53
2022-12-19T11:46:25.210Z,100431.09
2022-12-19T11:49:23.544Z,100418.56
2022-12-19T11:52:04.054Z,100426.94
2022-12-19T11:54:39.881Z,100427.66
2022-12-19T11:57:11.420Z,100404.78
2022-12-19T11:59:40.157Z,100415.50
2022-12-19T12:02:15.919Z,100436.75
2022-12-19T12:05:08.371Z,100415.50
2022-12-19T12:07:55.542Z,100438.84
2022-12-19T12:16:30.402Z,100441.75
2022-12-19T12:25:05.391Z,100437.66
2022-12-19T12:28:59.927Z,100423.94
2022-12-19T12:31:16.046Z,100438.56
2022-12-19T12:31:17.627Z,100425.91
2022-12-19T12:31:42.404Z,100412.66
2022-12-19T12:31:58.103Z,100425.13
2022-12-19T12:35:30.459Z,100399.97
2022-12-19T12:40:53.620Z,100387.47
2022-12-19T12:43:44.173Z,100424.91
2022-12-19T12:46:19.710Z,100427.50
2022-12-19T12:48:54.765Z,100438.34
2022-12-19T12:51:24.776Z,100445.03
2022-12-19T12:53:59.834Z,100430.56
2022-12-19T12:56:27.016Z,100449.66
2022-12-19T12:58:56.979Z,100464.38
2022-12-19T13:01:29.907Z,100453.81
2022-12-19T13:04:02.200Z,100444.00
2022-12-19T13:06:35.204Z,100444.31
2022-12-19T13:09:16.859Z,100454.09
2022-12-19T13:11:49.878Z,100455.63
2022-12-19T13:14:35.034Z,100442.34
2022-12-19T13:17:04.103Z,100448.50
2022-12-19T13:19:33.656Z,100443.63
2022-12-19T13:22:03.824Z,100462.63
2022-12-19T13:24:42.417Z,100431.25
2022-12-19T13:27:18.645Z,100454.94
2022-12-19T13:30:00.750Z,100443.34
2022-12-19T13:32:36.660Z,100458.81
2022-12-19T13:36:20.223Z,100426.91
2022-12-19T13:40:02.199Z,100433.03
2022-12-19T13:41:26.978Z,100428.13
2022-12-19T13:44:00.018Z,100445.88
2022-12-19T13:46:39.150Z,100411.44
2022-12-19T13:49:11.943Z,100418.88
2022-12-19T13:51:52.280Z,100449.22
2022-12-19T13:54:36.419Z,100410.56
2022-12-19T13:57:08.026Z,100427.06
2022-12-19T13:59:40.179Z,100416.94
2022-12-19T14:02:31.286Z,100418.56
2022-12-19T14:04:59.423Z,100419.19
2022-12-19T14:07:42.100Z,100440.13
2022-12-19T14:11:33.720Z,100414.88
2022-12-19T14:13:57.388Z,100413.13
2022-12-19T14:15:55.597Z,100410.22
2022-12-19T14:18:42.362Z,100414.03
2022-12-19T14:22:05.842Z,100442.72
2022-12-19T14:24:10.196Z,100421.94
2022-12-19T14:28:18.523Z,100420.75
2022-12-19T14:30:28.033Z,100416.63
2022-12-19T14:33:41.969Z,100452.09
2022-12-19T14:36:10.602Z,100439.69
2022-12-19T14:39:24.342Z,100444.91
2022-12-19T14:41:27.816Z,100442.47
2022-12-19T14:51:43.042Z,100449.03
2022-12-19T14:54:07.204Z,100443.09
2022-12-19T14:54:07.517Z,100449.16
2022-12-19T14:54:34.137Z,100435.19
2022-12-19T14:56:17.603Z,100470.75
2022-12-19T14:58:55.604Z,100448.56
2022-12-19T15:01:25.911Z,100482.56
2022-12-19T15:04:49.245Z,100455.75
2022-12-19T15:07:08.897Z,100453.66
2022-12-19T15:11:02.797Z,100472.63
2022-12-19T15:14:04.097Z,100470.97
2022-12-19T15:15:57.393Z,100474.53
2022-12-19T15:18:38.713Z,100464.72
2022-12-19T15:21:11.721Z,100479.19
2022-12-19T15:23:39.070Z,100462.38
2022-12-19T15:26:12.488Z,100463.94
2022-12-19T15:28:48.382Z,100465.41
2022-12-19T15:31:40.422Z,100450.56
2022-12-19T15:36:58.535Z,100466.66
2022-12-19T15:39:25.933Z,100452.41
2022-12-19T15:41:54.880Z,100470.78
2022-12-19T15:44:40.974Z,100442.09
2022-12-19T15:47:18.376Z,100452.69
2022-12-19T15:49:46.072Z,100468.63
2022-12-19T15:52:17.765Z,100464.28
2022-12-19T15:54:48.885Z,100457.03
2022-12-19T15:57:25.805Z,100476.41
2022-12-19T15:59:53.061Z,100479.75
2022-12-19T16:02:25.279Z,100451.44
2022-12-19T16:04:58.334Z,100455.63
2022-12-19T16:07:30.349Z,100466.16
2022-12-19T16:09:57.332Z,100467.47
2022-12-19T16:12:31.683Z,100444.91
2022-12-19T16:15:00.847Z,100463.25
2022-12-19T16:17:31.984Z,100452.53
2022-12-19T16:19:59.175Z,100471.81
2022-12-19T16:22:28.277Z,100425.63
2022-12-19T16:25:10.224Z,100443.00
2022-12-19T16:27:37.241Z,100437.44
2022-12-19T16:30:19.155Z,100448.88
2022-12-19T16:32:46.997Z,100426.25
2022-12-19T16:35:23.893Z,100440.56
2022-12-19T16:38:04.423Z,100425.72
2022-12-19T16:40:31.391Z,100445.16
2022-12-19T16:43:10.798Z,100434.03
2022-12-19T16:45:38.511Z,100443.13
2022-12-19T16:48:21.631Z,100445.91
2022-12-19T16:50:49.472Z,100451.44
2022-12-19T16:53:17.547Z,100437.28
2022-12-19T16:55:47.421Z,100434.38
2022-12-19T16:58:25.500Z,100466.72
2022-12-19T17:00:54.271Z,100417.47
2022-12-19T17:03:29.505Z,100438.03
2022-12-19T17:05:56.683Z,100444.97
2022-12-19T17:08:24.397Z,100435.44
2022-12-19T17:10:53.590Z,100456.25
2022-12-19T17:13:22.259Z,100463.63
2022-12-19T17:15:56.274Z,100470.56
2022-12-19T17:18:29.565Z,100480.72
2022-12-19T17:20:57.788Z,100480.69
2022-12-19T17:23:26.534Z,100466.13
2022-12-19T17:25:53.469Z,100460.06
2022-12-19T17:28:20.513Z,100494.06
2022-12-19T17:30:56.996Z,100483.94
2022-12-19T17:33:32.159Z,100495.56
2022-12-19T17:36:03.064Z,100501.72
2022-12-19T17:38:29.966Z,100499.91
2022-12-19T17:40:57.301Z,100496.09
2022-12-19T17:43:24.352Z,100494.28
2022-12-19T17:45:52.487Z,100501.22
2022-12-19T17:48:33.034Z,100505.63
2022-12-19T17:51:00.287Z,100491.56
2022-12-19T17:53:27.341Z,100499.91
2022-12-19T17:55:54.686Z,100494.03
2022-12-19T17:58:21.811Z,100495.56
2022-12-19T18:00:50.136Z,100505.41
2022-12-19T18:03:18.584Z,100499.22
2022-12-19T18:05:45.637Z,100503.41
2022-12-19T18:08:32.645Z,100525.59
2022-12-19T18:11:03.643Z,100497.47
2022-12-19T18:13:33.517Z,100503.94
2022-12-19T18:16:02.791Z,100501.78
2022-12-19T18:18:35.647Z,100514.69
2022-12-19T18:21:03.380Z,100524.56
2022-12-19T18:23:30.938Z,100503.50
2022-12-19T18:26:01.949Z,100494.38
2022-12-19T18:28:30.170Z,100516.19
2022-12-19T18:31:19.905Z,100511.28
2022-12-19T18:33:48.353Z,100514.72
2022-12-19T18:36:19.568Z,100520.06
2022-12-19T18:38:48.988Z,100522.34
2022-12-19T18:41:17.342Z,100497.09
2022-12-19T18:43:46.074Z,100512.47
2022-12-19T18:46:28.403Z,100525.53
2022-12-19T18:48:55.673Z,100529.03
2022-12-19T18:51:24.341Z,100508.53
2022-12-19T18:53:51.997Z,100504.72
2022-12-19T18:56:19.192Z,100521.91
2022-12-19T18:58:47.257Z,100524.94
2022-12-19T19:01:17.739Z,100519.06
2022-12-19T19:04:00.102Z,100518.22
2022-12-19T19:06:32.943Z,100529.91
2022-12-19T19:09:03.674Z,100524.56
2022-12-19T19:14:39.995Z,100526.31
2022-12-19T19:17:14.045Z,100502.44
2022-12-19T19:19:41.062Z,100508.69
2022-12-19T19:22:08.164Z,100540.56
2022-12-19T19:24:36.088Z,100511.28
2022-12-19T19:27:02.970Z,100519.09
2022-12-19T19:29:30.107Z,100514.06
2022-12-19T19:31:58.735Z,100528.44
2022-12-19T19:34:35.063Z,100524.88
2022-12-19T19:37:07.368Z,100534.38
2022-12-19T19:39:36.126Z,100524.44
2022-12-19T19:42:03.495Z,100522.59
2022-12-19T19:44:30.947Z,100533.97
2022-12-19T19:46:58.250Z,100522.31
2022-12-19T19:49:25.340Z,100540.19
2022-12-19T19:51:55.637Z,100532.66
2022-12-19T19:54:29.301Z,100530.66
2022-12-19T19:56:56.554Z,100538.38
2022-12-19T19:59:23.526Z,100559.31
2022-12-19T20:01:50.699Z,100533.50
2022-12-19T20:04:17.756Z,100537.66
2022-12-19T20:06:44.690Z,100540.16
2022-12-19T20:09:11.995Z,100541.78
2022-12-19T20:11:39.076Z,100540.94
2022-12-19T20:14:06.336Z,100540.63
2022-12-19T20:16:33.605Z,100538.03
2022-12-19T20:19:00.909Z,100568.97
2022-12-19T20:21:34.365Z,100570.19
2022-12-19T20:24:01.314Z,100558.59
2022-12-19T20:26:28.455Z,100554.78
2022-12-19T20:28:55.477Z,100561.25
2022-12-19T20:31:24.140Z,100561.78
2022-12-19T20:33:58.738Z,100556.31
2022-12-19T20:36:25.871Z,100591.84
2022-12-19T20:38:52.894Z,100586.94
2022-12-19T20:41:19.902Z,100588.09
2022-12-19T20:43:47.137Z,100584.06
2022-12-19T20:46:17.168Z,100598.97
2022-12-19T20:48:45.673Z,100607.00
2022-12-19T20:51:14.205Z,100615.31
2022-12-19T20:53:41.667Z,100618.06
2022-12-19T20:56:11.529Z,100594.19
2022-12-19T20:58:46.375Z,100593.00
2022-12-19T21:01:16.333Z,100572.44
2022-12-19T21:03:44.931Z,100612.44
2022-12-19T21:06:14.373Z,100599.31
2022-12-19T21:08:42.267Z,100597.69
2022-12-19T21:11:09.871Z,100624.94
2022-12-19T21:13:38.013Z,100609.94
2022-12-19T21:16:07.301Z,100624.28
2022-12-19T21:18:36.328Z,100603.03
2022-12-19T21:21:03.913Z,100615.22
2022-12-19T21:23:31.020Z,100607.09
2022-12-19T21:26:00.950Z,100604.03
2022-12-19T21:28:28.630Z,100600.44
2022-12-19T21:31:11.676Z,100578.53
2022-12-19T21:33:38.658Z,100582.84
2022-12-19T21:36:10.742Z,100578.41
2022-12-19T21:38:38.318Z,100593.28
2022-12-19T21:41:06.718Z,100594.03
2022-12-19T21:43:34.619Z,100590.03
2022-12-19T21:46:06.993Z,100608.44
2022-12-19T21:48:39.935Z,100603.41
2022-12-19T21:51:07.681Z,100588.97
2022-12-19T21:53:36.239Z,100584.84
2022-12-19T21:56:05.243Z,100589.84
2022-12-19T21:58:32.138Z,100606.53
2022-12-19T22:01:11.750Z,100611.47
2022-12-19T22:03:41.719Z,100581.84
2022-12-19T22:06:13.600Z,100580.38
2022-12-19T22:08:40.698Z,100599.78
2022-12-19T22:11:13.924Z,100596.72
2022-12-19T22:13:41.456Z,100624.44
2022-12-19T22:16:09.785Z,100619.28
2022-12-19T22:18:37.729Z,100610.59
2022-12-19T22:21:05.602Z,100586.97
2022-12-19T22:23:33.010Z,100600.41
2022-12-19T22:26:13.476Z,100615.53
2022-12-19T22:28:43.893Z,100627.16
2022-12-19T22:31:24.584Z,100614.28
2022-12-19T22:33:54.133Z,100613.78
2022-12-19T22:36:27.982Z,100599.88
2022-12-19T22:38:57.566Z,100606.56
2022-12-19T22:41:25.185Z,100618.53
2022-12-19T22:43:52.836Z,100629.81
2022-12-19T22:46:39.978Z,100628.25
2022-12-19T22:49:08.674Z,100643.88
2022-12-19T22:51:37.050Z,100611.66
2022-12-19T22:54:05.122Z,100634.69
2022-12-19T22:56:33.828Z,100621.22
2022-12-19T22:59:06.726Z,100658.97
2022-12-19T23:01:42.681Z,100633.28
2022-12-19T23:04:13.428Z,100642.00
2022-12-19T23:06:41.204Z,100644.22
2022-12-19T23:09:11.575Z,100630.34
2022-12-19T23:11:40.424Z,100639.31
2022-12-19T23:14:09.744Z,100639.16
2022-12-19T23:16:36.723Z,100651.78
2022-12-19T23:19:05.077Z,100624.63
2022-12-19T23:21:32.136Z,100646.56
2022-12-19T23:23:59.038Z,100635.69
2022-12-19T23:26:31.450Z,100654.59
2022-12-19T23:29:13.538Z,100637.59
2022-12-19T23:31:45.308Z,100661.88
2022-12-19T23:34:13.460Z,100658.91
2022-12-19T23:39:27.740Z,100662.13
2022-12-19T23:41:54.707Z,100661.06
2022-12-19T23:44:21.676Z,100666.59
2022-12-19T23:46:48.646Z,100645.50
2022-12-19T23:49:15.828Z,100627.09
2022-12-19T23:51:42.801Z,100656.47
2022-12-19T23:54:09.823Z,100682.38
2022-12-19T23:56:36.918Z,100653.31
2022-12-19T23:59:04.106Z,100645.31
